createdAt,value
2022-10-21T00:00:33.080Z,547.28
2022-10-21T00:03:22.201Z,534.50
2022-10-21T00:06:11.179Z,545.20
2022-10-21T00:08:59.177Z,545.63
2022-10-21T00:11:47.118Z,546.25
2022-10-21T00:14:36.388Z,530.17
2022-10-21T00:17:24.433Z,559.05
2022-10-21T00:20:13.609Z,532.78
2022-10-21T00:23:01.622Z,573.97
2022-10-21T00:25:49.533Z,561.13
2022-10-21T00:28:37.630Z,548.00
2022-10-21T00:31:27.573Z,528.33
2022-10-21T00:34:15.486Z,516.83
2022-10-21T00:37:03.457Z,537.03
2022-10-21T00:39:52.230Z,549.78
2022-10-21T00:42:44.037Z,556.47
2022-10-21T00:45:34.602Z,542.83
2022-10-21T00:48:32.701Z,547.75
2022-10-21T00:51:20.646Z,555.10
2022-10-21T00:54:09.689Z,562.25
2022-10-21T00:56:58.613Z,547.47
2022-10-21T00:59:50.715Z,571.10
2022-10-21T01:02:38.673Z,565.35
2022-10-21T01:05:28.730Z,565.33
2022-10-21T01:08:16.788Z,550.47
2022-10-21T01:11:06.460Z,558.78
2022-10-21T01:14:20.192Z,566.30
2022-10-21T01:17:20.940Z,548.28
2022-10-21T01:21:05.786Z,550.53
2022-10-21T01:24:24.272Z,537.92
2022-10-21T01:27:24.401Z,526.08
2022-10-21T01:30:21.093Z,540.40
2022-10-21T01:33:44.404Z,542.80
2022-10-21T01:36:40.949Z,511.23
2022-10-21T01:39:37.758Z,566.65
2022-10-21T01:42:32.889Z,526.63
2022-10-21T01:45:25.293Z,517.97
2022-10-21T01:48:18.929Z,534.58
2022-10-21T01:51:08.684Z,542.05
2022-10-21T01:54:03.567Z,533.00
2022-10-21T01:56:52.384Z,551.15
2022-10-21T01:59:44.022Z,540.75
2022-10-21T02:02:35.155Z,541.00
2022-10-21T02:05:28.337Z,536.65
2022-10-21T02:08:16.270Z,521.08
2022-10-21T02:11:09.907Z,531.70
2022-10-21T02:14:02.646Z,546.88
2022-10-21T02:16:51.936Z,535.10
2022-10-21T02:19:39.848Z,520.90
2022-10-21T02:22:29.329Z,545.13
2022-10-21T02:25:21.522Z,547.97
2022-10-21T02:28:13.738Z,546.05
2022-10-21T02:31:11.800Z,541.80
2022-10-21T02:34:05.118Z,547.97
2022-10-21T02:36:57.432Z,515.78
2022-10-21T02:39:51.583Z,513.10
2022-10-21T02:42:45.168Z,494.45
2022-10-21T02:45:35.683Z,520.75
2022-10-21T02:48:23.547Z,523.58
2022-10-21T02:51:12.099Z,510.15
2022-10-21T02:53:59.973Z,527.53
2022-10-21T02:56:47.825Z,538.83
2022-10-21T02:59:35.701Z,509.55
2022-10-21T03:02:24.931Z,509.48
2022-10-21T03:05:12.953Z,548.78
2022-10-21T03:08:00.828Z,534.28
2022-10-21T03:10:52.947Z,529.08
2022-10-21T03:13:41.402Z,530.63
2022-10-21T03:16:29.309Z,512.45
2022-10-21T03:19:18.503Z,534.72
2022-10-21T03:22:06.364Z,498.13
2022-10-21T03:24:54.483Z,503.75
2022-10-21T03:27:42.457Z,514.83
2022-10-21T03:30:30.355Z,510.50
2022-10-21T03:33:18.237Z,509.23
2022-10-21T03:36:08.055Z,509.13
2022-10-21T03:38:55.939Z,503.15
2022-10-21T03:41:43.804Z,500.10
2022-10-21T03:44:31.714Z,509.00
2022-10-21T03:47:19.672Z,511.80
2022-10-21T03:50:11.909Z,505.02
2022-10-21T03:53:13.678Z,522.90
2022-10-21T03:56:07.409Z,490.73
2022-10-21T03:58:58.647Z,499.27
2022-10-21T04:01:46.845Z,512.85
2022-10-21T04:04:34.764Z,516.45
2022-10-21T04:07:22.684Z,489.20
2022-10-21T04:10:12.960Z,492.20
2022-10-21T04:13:00.819Z,522.83
2022-10-21T04:15:48.733Z,481.25
2022-10-21T04:18:36.606Z,502.77
2022-10-21T04:21:24.497Z,516.25
2022-10-21T04:24:12.863Z,495.13
2022-10-21T04:27:02.103Z,482.33
2022-10-21T04:29:49.974Z,490.70
2022-10-21T04:32:38.284Z,497.50
2022-10-21T04:35:26.379Z,492.98
2022-10-21T04:38:14.272Z,469.00
2022-10-21T04:41:03.816Z,503.77
2022-10-21T04:43:53.060Z,510.58
2022-10-21T04:46:40.942Z,507.20
2022-10-21T04:49:28.827Z,488.65
2022-10-21T04:52:16.735Z,477.55
2022-10-21T04:55:05.539Z,512.53
2022-10-21T04:57:53.409Z,523.60
2022-10-21T05:00:42.746Z,494.23
2022-10-21T05:03:30.710Z,498.17
2022-10-21T05:06:18.607Z,510.30
2022-10-21T05:09:06.707Z,486.30
2022-10-21T05:11:54.578Z,511.88
2022-10-21T05:14:42.477Z,496.30
2022-10-21T05:17:31.691Z,487.08
2022-10-21T05:20:19.669Z,541.90
2022-10-21T05:23:07.545Z,484.13
2022-10-21T05:25:55.651Z,541.95
2022-10-21T05:28:43.536Z,523.85
2022-10-21T05:31:31.426Z,492.80
2022-10-21T05:34:20.871Z,509.95
2022-10-21T05:37:08.785Z,535.33
2022-10-21T05:39:56.679Z,518.22
2022-10-21T05:42:44.565Z,531.30
2022-10-21T05:45:32.556Z,520.88
2022-10-21T05:48:20.525Z,521.88
2022-10-21T05:51:09.775Z,506.00
2022-10-21T05:53:58.125Z,519.33
2022-10-21T05:56:46.038Z,488.65
2022-10-21T05:59:33.925Z,501.75
2022-10-21T06:02:21.781Z,522.15
2022-10-21T06:04:50.377Z,518.95
2022-10-21T06:07:19.552Z,518.75
2022-10-21T06:09:47.147Z,547.95
2022-10-21T06:12:14.761Z,523.55
2022-10-21T06:14:42.396Z,529.30
2022-10-21T06:17:10.016Z,534.53
2022-10-21T06:19:37.640Z,560.17
2022-10-21T06:22:05.265Z,534.40
2022-10-21T06:24:34.267Z,531.83
2022-10-21T06:27:01.892Z,526.65
2022-10-21T06:29:29.695Z,548.47
2022-10-21T06:31:57.287Z,560.22
2022-10-21T06:34:25.423Z,517.80
2022-10-21T06:36:53.160Z,558.50
2022-10-21T06:39:20.795Z,533.10
2022-10-21T06:41:49.884Z,563.72
2022-10-21T06:44:36.361Z,551.33
2022-10-21T06:47:03.988Z,558.25
2022-10-21T06:49:31.748Z,551.55
2022-10-21T06:51:59.345Z,535.17
2022-10-21T06:54:27.345Z,556.33
2022-10-21T06:56:56.510Z,553.05
2022-10-21T06:59:24.114Z,560.40
2022-10-21T07:02:00.525Z,551.90
2022-10-21T07:04:29.207Z,549.65
2022-10-21T07:06:56.826Z,559.72
2022-10-21T07:09:24.595Z,540.92
2022-10-21T07:11:52.319Z,548.33
2022-10-21T07:14:21.270Z,548.60
2022-10-21T07:16:49.225Z,578.53
2022-10-21T07:19:16.825Z,574.20
2022-10-21T07:21:44.537Z,562.47
2022-10-21T07:24:12.161Z,568.42
2022-10-21T07:26:40.522Z,587.92
2022-10-21T07:29:08.227Z,582.03
2022-10-21T07:31:39.189Z,544.03
2022-10-21T07:34:09.396Z,561.78
2022-10-21T07:36:39.813Z,537.92
2022-10-21T07:39:10.083Z,548.10
2022-10-21T07:41:40.323Z,539.25
2022-10-21T07:44:09.319Z,565.80
2022-10-21T07:46:40.782Z,546.63
2022-10-21T07:49:09.298Z,564.47
2022-10-21T07:51:38.004Z,554.53
2022-10-21T07:54:05.934Z,568.45
2022-10-21T07:56:36.211Z,571.92
2022-10-21T07:59:07.754Z,556.13
2022-10-21T08:01:40.382Z,521.90
2022-10-21T08:04:08.155Z,560.70
2022-10-21T08:06:35.829Z,536.25
2022-10-21T08:09:05.633Z,569.03
2022-10-21T08:11:34.797Z,553.22
2022-10-21T08:14:03.106Z,580.38
2022-10-21T08:16:30.789Z,571.90
2022-10-21T08:19:00.381Z,580.80
2022-10-21T08:21:28.074Z,562.33
2022-10-21T08:23:55.748Z,579.45
2022-10-21T08:26:23.372Z,578.83
2022-10-21T08:28:51.015Z,589.92
2022-10-21T08:31:21.017Z,583.90
2022-10-21T08:33:48.947Z,560.50
2022-10-21T08:36:20.016Z,560.30
2022-10-21T08:38:48.056Z,548.35
2022-10-21T08:41:36.998Z,565.25
2022-10-21T08:44:07.697Z,574.05
2022-10-21T08:46:39.905Z,563.13
2022-10-21T08:49:14.192Z,565.95
2022-10-21T08:51:48.774Z,575.28
2022-10-21T08:54:21.878Z,567.17
2022-10-21T08:56:52.595Z,543.47
2022-10-21T08:59:23.124Z,546.25
2022-10-21T09:01:57.302Z,569.00
2022-10-21T09:04:33.041Z,590.33
2022-10-21T09:07:12.986Z,573.85
2022-10-21T09:09:49.568Z,571.50
2022-10-21T09:12:24.172Z,564.30
2022-10-21T09:15:14.888Z,565.17
2022-10-21T09:17:54.989Z,545.95
2022-10-21T09:20:32.421Z,560.00
2022-10-21T09:23:13.489Z,547.13
2022-10-21T09:25:49.246Z,547.70
2022-10-21T09:28:17.423Z,554.53
2022-10-21T09:30:46.092Z,578.53
2022-10-21T09:33:20.903Z,586.25
2022-10-21T09:35:51.840Z,586.53
2022-10-21T09:38:26.895Z,565.05
2022-10-21T09:41:03.147Z,559.05
2022-10-21T09:43:31.546Z,559.80
2022-10-21T09:45:59.531Z,558.45
2022-10-21T09:48:39.250Z,555.30
2022-10-21T09:51:17.245Z,562.90
2022-10-21T09:53:53.866Z,566.65
2022-10-21T09:56:25.403Z,561.60
2022-10-21T09:59:07.570Z,577.70
2022-10-21T10:01:37.856Z,551.78
2022-10-21T10:04:11.985Z,546.00
2022-10-21T10:06:41.563Z,573.45
2022-10-21T10:09:15.613Z,572.55
2022-10-21T10:11:53.602Z,574.25
2022-10-21T10:14:38.274Z,572.28
2022-10-21T10:17:30.283Z,577.53
2022-10-21T10:20:17.786Z,555.25
2022-10-21T10:22:47.749Z,532.13
2022-10-21T10:25:24.049Z,574.50
2022-10-21T10:27:54.279Z,575.90
2022-10-21T10:30:22.898Z,571.13
2022-10-21T10:32:52.249Z,535.38
2022-10-21T10:35:29.315Z,561.40
2022-10-21T10:37:58.474Z,581.63
2022-10-21T10:40:32.429Z,586.35
2022-10-21T10:43:04.718Z,583.95
2022-10-21T10:45:32.532Z,563.25
2022-10-21T10:48:04.633Z,578.03
2022-10-21T10:50:43.269Z,578.33
2022-10-21T10:53:23.306Z,580.38
2022-10-21T10:56:00.727Z,567.92
2022-10-21T10:58:32.802Z,587.58
2022-10-21T11:01:04.400Z,567.42
2022-10-21T11:03:41.254Z,556.65
2022-10-21T11:06:16.481Z,568.03
2022-10-21T11:08:48.630Z,555.72
2022-10-21T11:11:24.595Z,557.13
2022-10-21T11:13:52.831Z,590.67
2022-10-21T11:16:40.783Z,580.90
2022-10-21T11:19:27.957Z,599.40
2022-10-21T11:22:05.140Z,557.50
2022-10-21T11:25:02.487Z,595.17
2022-10-21T11:27:44.435Z,555.33
2022-10-21T11:30:15.787Z,552.38
2022-10-21T11:32:59.082Z,547.42
2022-10-21T11:35:37.457Z,564.92
2022-10-21T11:38:22.990Z,574.83
2022-10-21T11:40:55.513Z,563.95
2022-10-21T11:43:36.258Z,551.53
2022-10-21T11:46:12.114Z,545.00
2022-10-21T11:48:53.342Z,557.92
2022-10-21T11:51:36.061Z,592.13
2022-10-21T11:54:20.035Z,563.70
2022-10-21T11:56:54.154Z,571.50
2022-10-21T11:59:34.661Z,547.00
2022-10-21T12:02:12.593Z,576.35
2022-10-21T12:04:48.929Z,565.00
2022-10-21T12:07:42.597Z,585.10
2022-10-21T12:10:15.862Z,550.42
2022-10-21T12:12:47.474Z,587.10
2022-10-21T12:15:20.624Z,539.15
2022-10-21T12:17:49.740Z,583.00
2022-10-21T12:20:23.926Z,592.17
2022-10-21T12:22:54.240Z,553.05
2022-10-21T12:25:29.068Z,578.40
2022-10-21T12:28:04.323Z,578.70
2022-10-21T12:30:39.619Z,591.63
2022-10-21T12:33:17.999Z,570.50
2022-10-21T12:35:50.282Z,555.10
2022-10-21T12:38:27.034Z,585.80
2022-10-21T12:41:22.237Z,584.28
2022-10-21T12:43:54.761Z,590.20
2022-10-21T12:46:28.986Z,555.13
2022-10-21T12:48:57.896Z,593.70
2022-10-21T12:51:28.989Z,568.13
2022-10-21T12:53:58.996Z,577.15
2022-10-21T12:56:31.200Z,570.72
2022-10-21T12:59:03.390Z,582.47
2022-10-21T13:01:38.653Z,564.72
2022-10-21T13:04:26.854Z,560.72
2022-10-21T13:06:56.576Z,548.63
2022-10-21T13:09:36.410Z,564.33
2022-10-21T13:12:14.715Z,566.20
2022-10-21T13:14:45.462Z,563.30
2022-10-21T13:17:46.754Z,557.55
2022-10-21T13:20:48.287Z,560.58
2022-10-21T13:23:32.287Z,532.00
2022-10-21T13:26:24.020Z,553.15
2022-10-21T13:29:06.607Z,528.58
2022-10-21T13:31:34.775Z,532.70
2022-10-21T13:34:04.297Z,520.70
2022-10-21T13:36:39.756Z,507.50
2022-10-21T13:39:23.621Z,506.80
2022-10-21T13:42:03.513Z,539.00
2022-10-21T13:44:35.692Z,532.72
2022-10-21T13:47:28.792Z,516.97
2022-10-21T13:50:14.164Z,507.10
2022-10-21T13:52:44.017Z,521.60
2022-10-21T13:55:20.665Z,527.58
2022-10-21T13:57:49.296Z,514.47
2022-10-21T14:00:21.829Z,529.15
2022-10-21T14:02:50.856Z,522.90
2022-10-21T14:05:31.567Z,530.53
2022-10-21T14:07:59.338Z,543.92
2022-10-21T14:10:28.641Z,544.63
2022-10-21T14:15:38.698Z,553.22
2022-10-21T14:18:07.165Z,541.97
2022-10-21T14:20:38.847Z,534.67
2022-10-21T14:23:09.555Z,520.63
2022-10-21T14:25:37.556Z,526.78
2022-10-21T14:28:05.989Z,545.72
2022-10-21T14:30:37.016Z,533.08
2022-10-21T14:33:08.409Z,526.80
2022-10-21T14:35:37.380Z,542.08
2022-10-21T14:38:24.814Z,505.40
2022-10-21T14:40:59.876Z,509.10
2022-10-21T14:43:33.526Z,501.35
2022-10-21T14:46:01.942Z,502.35
2022-10-21T14:48:33.001Z,524.22
2022-10-21T14:51:04.355Z,493.65
2022-10-21T14:53:35.320Z,552.03
2022-10-21T14:56:05.695Z,525.40
2022-10-21T14:58:36.214Z,511.63
2022-10-21T15:01:12.187Z,483.48
2022-10-21T15:03:42.227Z,507.52
2022-10-21T15:06:14.021Z,538.70
2022-10-21T15:08:43.468Z,525.58
2022-10-21T15:11:23.357Z,497.60
2022-10-21T15:13:58.718Z,525.00
2022-10-21T15:16:30.315Z,525.42
2022-10-21T15:18:58.741Z,498.00
2022-10-21T15:21:36.172Z,535.10
2022-10-21T15:24:05.306Z,514.17
2022-10-21T15:26:37.006Z,511.15
2022-10-21T15:29:14.073Z,496.15
2022-10-21T15:31:41.896Z,523.00
2022-10-21T15:34:13.943Z,512.08
2022-10-21T15:36:43.928Z,493.30
2022-10-21T15:39:12.129Z,501.65
2022-10-21T15:41:40.456Z,504.38
2022-10-21T15:44:18.950Z,513.45
2022-10-21T15:46:47.275Z,510.20
2022-10-21T15:49:18.564Z,527.67
2022-10-21T15:51:48.738Z,506.23
2022-10-21T15:54:17.918Z,525.75
2022-10-21T15:56:47.378Z,526.95
2022-10-21T15:59:18.534Z,495.27
2022-10-21T16:01:47.291Z,531.42
2022-10-21T16:04:14.925Z,506.55
2022-10-21T16:06:47.642Z,531.30
2022-10-21T16:09:20.591Z,492.55
2022-10-21T16:11:59.014Z,523.67
2022-10-21T16:14:29.592Z,520.72
2022-10-21T16:16:58.347Z,488.98
2022-10-21T16:19:25.978Z,509.35
2022-10-21T16:21:53.621Z,514.00
2022-10-21T16:24:22.753Z,501.25
2022-10-21T16:26:50.986Z,519.05
2022-10-21T16:29:21.087Z,519.33
2022-10-21T16:31:48.972Z,491.20
2022-10-21T16:34:16.632Z,492.38
2022-10-21T16:36:44.331Z,529.95
2022-10-21T16:39:14.615Z,522.53
2022-10-21T16:41:43.541Z,512.55
2022-10-21T16:44:11.182Z,470.55
2022-10-21T16:46:41.392Z,500.92
2022-10-21T16:49:13.451Z,503.67
2022-10-21T16:51:42.029Z,520.03
2022-10-21T16:54:10.919Z,475.30
2022-10-21T16:56:38.504Z,523.13
2022-10-21T16:59:07.846Z,509.30
2022-10-21T17:01:35.645Z,533.53
2022-10-21T17:04:03.375Z,527.22
2022-10-21T17:06:30.982Z,520.92
2022-10-21T17:08:58.989Z,532.15
2022-10-21T17:11:32.888Z,519.63
2022-10-21T17:14:01.389Z,523.13
2022-10-21T17:16:30.453Z,517.97
2022-10-21T17:18:58.203Z,537.20
2022-10-21T17:21:27.964Z,508.50
2022-10-21T17:23:56.411Z,516.15
2022-10-21T17:26:24.412Z,505.08
2022-10-21T17:28:52.204Z,508.52
2022-10-21T17:31:21.751Z,489.90
2022-10-21T17:33:52.089Z,506.67
2022-10-21T17:36:21.304Z,488.48
2022-10-21T17:38:48.928Z,479.90
2022-10-21T17:41:19.402Z,495.88
2022-10-21T17:43:47.967Z,500.15
2022-10-21T17:46:18.491Z,497.23
2022-10-21T17:48:46.337Z,511.00
2022-10-21T17:51:15.418Z,503.38
2022-10-21T17:53:43.140Z,497.70
2022-10-21T17:56:12.940Z,514.40
2022-10-21T17:58:40.593Z,501.52
2022-10-21T18:01:09.266Z,481.73
2022-10-21T18:03:37.026Z,508.25
2022-10-21T18:06:06.688Z,491.65
2022-10-21T18:08:35.853Z,495.90
2022-10-21T18:11:06.836Z,491.02
2022-10-21T18:13:35.059Z,490.95
2022-10-21T18:16:04.218Z,481.55
2022-10-21T18:18:32.335Z,462.45
2022-10-21T18:21:03.636Z,490.23
2022-10-21T18:23:31.538Z,494.13
2022-10-21T18:26:04.729Z,482.58
2022-10-21T18:28:32.649Z,476.25
2022-10-21T18:31:00.516Z,486.58
2022-10-21T18:33:28.138Z,475.58
2022-10-21T18:35:55.779Z,477.17
2022-10-21T18:38:23.707Z,483.35
2022-10-21T18:40:56.640Z,488.60
2022-10-21T18:43:38.420Z,490.33
2022-10-21T18:46:06.360Z,497.75
2022-10-21T18:48:34.030Z,497.25
2022-10-21T18:51:06.353Z,504.75
2022-10-21T18:53:34.864Z,491.27
2022-10-21T18:56:05.068Z,500.60
2022-10-21T18:58:33.170Z,528.22
2022-10-21T19:01:02.367Z,493.13
2022-10-21T19:03:30.038Z,499.17
2022-10-21T19:05:57.661Z,503.13
2022-10-21T19:08:25.408Z,493.40
2022-10-21T19:10:53.012Z,503.27
2022-10-21T19:13:20.627Z,479.13
2022-10-21T19:15:48.283Z,490.77
2022-10-21T19:18:17.228Z,490.13
2022-10-21T19:20:44.829Z,481.10
2022-10-21T19:23:12.469Z,473.52
2022-10-21T19:25:40.063Z,470.30
2022-10-21T19:28:07.688Z,486.10
2022-10-21T19:30:35.425Z,504.30
2022-10-21T19:33:03.006Z,474.70
2022-10-21T19:35:32.295Z,453.00
2022-10-21T19:38:03.140Z,476.27
2022-10-21T19:40:32.980Z,495.83
2022-10-21T19:43:00.559Z,496.55
2022-10-21T19:45:28.140Z,481.38
2022-10-21T19:47:55.738Z,483.27
2022-10-21T19:50:23.321Z,495.60
2022-10-21T19:52:52.286Z,518.28
2022-10-21T19:55:20.073Z,487.75
2022-10-21T19:57:47.718Z,477.02
2022-10-21T20:00:15.381Z,506.58
2022-10-21T20:02:42.905Z,519.65
2022-10-21T20:05:31.452Z,502.30
2022-10-21T20:08:20.657Z,509.05
2022-10-21T20:11:11.091Z,475.80
2022-10-21T20:13:59.642Z,469.92
2022-10-21T20:16:50.104Z,459.67
2022-10-21T20:19:38.073Z,483.13
2022-10-21T20:22:25.989Z,467.33
2022-10-21T20:25:15.232Z,493.75
2022-10-21T20:28:03.087Z,486.38
2022-10-21T20:31:02.076Z,492.58
2022-10-21T20:33:51.305Z,491.60
2022-10-21T20:36:39.221Z,498.00
2022-10-21T20:39:27.349Z,473.25
2022-10-21T20:42:16.671Z,493.55
2022-10-21T20:45:05.157Z,491.92
2022-10-21T20:47:53.077Z,471.98
2022-10-21T20:50:40.994Z,497.67
2022-10-21T20:53:31.198Z,496.63
2022-10-21T20:56:19.456Z,492.05
2022-10-21T20:59:10.501Z,480.60
2022-10-21T21:01:58.444Z,507.40
2022-10-21T21:04:46.301Z,474.13
2022-10-21T21:07:34.504Z,494.05
2022-10-21T21:10:22.421Z,483.55
2022-10-21T21:13:10.309Z,516.63
2022-10-21T21:16:07.535Z,491.05
2022-10-21T21:18:57.130Z,474.52
2022-10-21T21:21:44.988Z,507.17
2022-10-21T21:24:32.923Z,482.98
2022-10-21T21:27:20.790Z,486.23
2022-10-21T21:30:10.006Z,479.35
2022-10-21T21:32:59.210Z,497.85
2022-10-21T21:35:47.118Z,495.10
2022-10-21T21:38:35.260Z,498.98
2022-10-21T21:41:24.091Z,476.83
2022-10-21T21:44:11.975Z,483.77
2022-10-21T21:46:59.882Z,459.33
2022-10-21T21:49:49.085Z,475.00
2022-10-21T21:52:37.570Z,470.58
2022-10-21T21:55:25.445Z,454.58
2022-10-21T21:58:13.780Z,472.17
2022-10-21T22:01:09.714Z,488.50
2022-10-21T22:03:58.724Z,459.92
2022-10-21T22:06:47.936Z,450.77
2022-10-21T22:09:35.849Z,464.40
2022-10-21T22:12:23.766Z,478.40
2022-10-21T22:15:19.839Z,482.77
2022-10-21T22:18:20.689Z,471.60
2022-10-21T22:21:12.029Z,491.65
2022-10-21T22:24:01.256Z,477.58
2022-10-21T22:26:49.153Z,451.30
2022-10-21T22:29:37.005Z,467.65
2022-10-21T22:32:24.838Z,463.38
2022-10-21T22:35:12.721Z,491.38
2022-10-21T22:38:00.667Z,478.50
2022-10-21T22:40:53.335Z,477.38
2022-10-21T22:43:42.701Z,475.40
2022-10-21T22:46:34.545Z,468.15
2022-10-21T22:49:22.620Z,457.33
2022-10-21T22:52:10.557Z,465.08
2022-10-21T22:54:58.467Z,470.95
2022-10-21T22:57:48.667Z,453.38
2022-10-21T23:00:38.128Z,473.00
2022-10-21T23:03:26.188Z,488.95
2022-10-21T23:06:14.043Z,465.50
2022-10-21T23:09:03.190Z,467.08
2022-10-21T23:11:51.140Z,441.67
2022-10-21T23:14:40.346Z,469.80
2022-10-21T23:17:28.253Z,453.92
2022-10-21T23:20:16.335Z,440.27
2022-10-21T23:23:04.258Z,443.08
2022-10-21T23:25:52.134Z,462.02
2022-10-21T23:28:40.062Z,448.98
2022-10-21T23:31:29.277Z,454.02
2022-10-21T23:34:17.421Z,455.77
2022-10-21T23:37:05.430Z,466.52
2022-10-21T23:39:53.415Z,472.65
2022-10-21T23:42:42.885Z,448.50
2022-10-21T23:45:31.110Z,483.38
2022-10-21T23:48:20.294Z,473.00
2022-10-21T23:51:08.192Z,477.40
2022-10-21T23:53:56.626Z,474.67
2022-10-21T23:56:45.336Z,454.25
2022-10-21T23:59:34.234Z,446.35
